Carriage Hill, Washington
Current Conditions -  °F | °C
As of 1:35 PM on Monday 24 Nov 2014 (Local Time) from KCLS Reporting Station
Clear Clear  
Wind Chill: 10°   Ceiling: Unl
Heat Index: 10°   Visibility: 10mi
Dew Point:   Wind: 6mph
Humidity: 87%   Direction: 180°S
Pressure: 30.25"   Gusts: NA
Location:  46.5485°N, 122.112°W
Report Text: KCLS 242135Z AUTO 18005KT 10SM CLR 10/08 A3025 RMK AO2
Loading
Personal Weather Stations






























Interactive Weather Map New forecast layout! Learn more

10-Day Weather Forecast

Advertisements
Track Severe Weather on mobile